TimeEST,TemperatureF,Dew PointF,Humidity,Sea Level PressureIn,VisibilityMPH,Wind Direction,Wind SpeedMPH,Gust SpeedMPH,PrecipitationIn,Events,Conditions,WindDirDegrees,DateUTC
12:14 AM,7.0,4.3,89,30.42,0.5,Calm,Calm,-,N/A,Fog,Light Freezing Fog,0,2013-01-27 05:14:00
12:34 AM,5.5,2.5,87,30.41,7.0,Calm,Calm,-,N/A,,Clear,0,2013-01-27 05:34:00
12:54 AM,3.6,0.3,86,30.41,10.0,Calm,Calm,-,N/A,,Clear,0,2013-01-27 05:54:00
1:14 AM,2.7,-0.8,86,30.42,10.0,Calm,Calm,-,N/A,,Clear,0,2013-01-27 06:14:00
1:34 AM,4.6,1.8,88,30.43,7.0,Calm,Calm,-,N/A,,Clear,0,2013-01-27 06:34:00
1:54 AM,3.7,0.3,86,30.43,10.0,Calm,Calm,-,N/A,,Clear,0,2013-01-27 06:54:00
2:14 AM,3.6,0.3,86,30.44,10.0,Calm,Calm,-,N/A,,Clear,0,2013-01-27 07:14:00
2:34 AM,5.9,3.2,89,30.44,10.0,Calm,Calm,-,N/A,,Scattered Clouds,0,2013-01-27 07:34:00
2:54 AM,5.7,3.0,89,30.43,10.0,Calm,Calm,-,N/A,,Clear,0,2013-01-27 07:54:00
3:13 AM,4.5,1.4,87,30.43,10.0,Calm,Calm,-,N/A,,Clear,0,2013-01-27 08:13:00
3:34 AM,4.6,1.9,89,30.44,10.0,Calm,Calm,-,N/A,,Mostly Cloudy,0,2013-01-27 08:34:00
3:54 AM,5.0,2.1,88,30.43,10.0,Calm,Calm,-,N/A,,Mostly Cloudy,0,2013-01-27 08:54:00
4:12 AM,4.3,1.2,87,30.42,10.0,Calm,Calm,-,N/A,,Mostly Cloudy,0,2013-01-27 09:12:00
4:34 AM,8.1,5.7,90,30.42,10.0,Calm,Calm,-,N/A,,Overcast,0,2013-01-27 09:34:00
4:54 AM,9.1,6.6,89,30.42,10.0,Calm,Calm,-,N/A,,Overcast,0,2013-01-27 09:54:00
5:14 AM,11.7,9.3,90,30.42,10.0,Calm,Calm,-,N/A,,Overcast,0,2013-01-27 10:14:00
5:34 AM,13.3,11.3,92,30.42,10.0,Calm,Calm,-,N/A,,Overcast,0,2013-01-27 10:34:00
5:54 AM,15.3,13.1,91,30.43,10.0,Calm,Calm,-,N/A,,Overcast,0,2013-01-27 10:54:00
6:14 AM,14.9,13.1,93,30.43,10.0,Calm,Calm,-,N/A,,Overcast,0,2013-01-27 11:14:00
6:34 AM,16.3,14.2,91,30.42,10.0,SSE,3.5,-,N/A,,Overcast,160,2013-01-27 11:34:00
7:14 AM,16.5,14.5,92,30.44,10.0,South,3.5,-,N/A,,Overcast,180,2013-01-27 12:14:00
7:34 AM,16.0,14.0,92,30.45,10.0,Calm,Calm,-,N/A,,Overcast,0,2013-01-27 12:34:00
7:54 AM,12.6,9.9,89,30.45,10.0,South,3.5,-,N/A,,Scattered Clouds,170,2013-01-27 12:54:00
8:14 AM,11.8,9.5,90,30.45,10.0,SSE,3.5,-,N/A,,Clear,160,2013-01-27 13:14:00
8:34 AM,15.4,12.7,89,30.45,10.0,Calm,Calm,-,N/A,,Clear,0,2013-01-27 13:34:00
8:54 AM,15.6,12.9,89,30.45,10.0,Calm,Calm,-,N/A,,Scattered Clouds,0,2013-01-27 13:54:00
9:14 AM,18.1,14.0,84,30.44,10.0,SSE,4.6,-,N/A,,Scattered Clouds,160,2013-01-27 14:14:00
9:34 AM,20.3,14.4,78,30.43,10.0,SSE,6.9,-,N/A,,Mostly Cloudy,150,2013-01-27 14:34:00
9:55 AM,20.8,14.5,77,30.43,10.0,South,8.1,-,N/A,,Mostly Cloudy,170,2013-01-27 14:55:00
10:14 AM,21.4,15.1,77,30.43,10.0,South,10.4,-,N/A,,Scattered Clouds,180,2013-01-27 15:14:00
10:34 AM,22.5,15.8,76,30.43,10.0,South,10.4,-,N/A,,Clear,170,2013-01-27 15:34:00
10:55 AM,23.0,16.2,75,30.43,10.0,South,10.4,-,N/A,,Scattered Clouds,180,2013-01-27 15:55:00
11:14 AM,24.8,17.1,72,30.42,10.0,South,12.7,-,N/A,,Mostly Cloudy,190,2013-01-27 16:14:00
11:34 AM,25.5,16.3,68,30.42,10.0,SSW,12.7,-,N/A,,Scattered Clouds,200,2013-01-27 16:34:00
11:55 AM,25.5,16.2,68,30.41,10.0,South,13.8,-,N/A,,Mostly Cloudy,190,2013-01-27 16:55:00
12:14 PM,25.9,16.3,67,30.41,10.0,South,13.8,-,N/A,,Overcast,180,2013-01-27 17:14:00
12:34 PM,25.5,15.8,67,30.40,10.0,South,17.3,-,N/A,,Overcast,190,2013-01-27 17:34:00
12:55 PM,25.5,16.7,69,30.39,10.0,South,12.7,-,N/A,,Overcast,190,2013-01-27 17:55:00
1:14 PM,26.2,16.7,67,30.39,10.0,SSW,16.1,19.6,N/A,,Overcast,200,2013-01-27 18:14:00
1:34 PM,26.2,17.1,68,30.38,10.0,South,11.5,-,N/A,,Overcast,190,2013-01-27 18:34:00
1:55 PM,27.1,17.6,67,30.38,10.0,SSW,11.5,18.4,N/A,,Overcast,200,2013-01-27 18:55:00
2:14 PM,27.3,17.6,67,30.37,10.0,South,12.7,-,N/A,,Overcast,180,2013-01-27 19:14:00
2:35 PM,27.3,18.0,68,30.35,10.0,South,11.5,-,N/A,,Overcast,180,2013-01-27 19:35:00
2:54 PM,27.5,18.1,68,30.34,10.0,South,11.5,-,N/A,,Overcast,170,2013-01-27 19:54:00
3:14 PM,27.9,18.3,67,30.34,10.0,South,10.4,-,N/A,,Overcast,170,2013-01-27 20:14:00
3:35 PM,27.9,18.0,66,30.32,10.0,SSE,9.2,-,N/A,,Scattered Clouds,160,2013-01-27 20:35:00
3:54 PM,27.9,17.6,65,30.32,10.0,SSE,10.4,16.1,N/A,,Clear,160,2013-01-27 20:54:00
4:14 PM,27.5,17.4,66,30.30,10.0,SSE,10.4,-,N/A,,Scattered Clouds,160,2013-01-27 21:14:00
4:34 PM,27.5,17.4,66,30.30,10.0,South,10.4,-,N/A,,Overcast,170,2013-01-27 21:34:00
4:54 PM,27.1,17.6,67,30.31,10.0,SSE,10.4,-,N/A,,Overcast,160,2013-01-27 21:54:00
5:15 PM,27.0,17.8,68,30.30,10.0,SSE,10.4,-,N/A,,Overcast,160,2013-01-27 22:15:00
5:34 PM,26.6,17.6,69,30.31,10.0,South,12.7,-,N/A,,Overcast,170,2013-01-27 22:34:00
5:54 PM,26.6,18.5,71,30.31,10.0,South,12.7,-,N/A,,Overcast,180,2013-01-27 22:54:00
6:15 PM,26.6,18.5,71,30.31,10.0,South,16.1,-,N/A,,Overcast,180,2013-01-27 23:15:00
6:34 PM,26.4,18.7,73,30.30,10.0,South,13.8,20.7,N/A,Snow,Light Snow,180,2013-01-27 23:34:00
6:55 PM,26.1,19.4,76,30.29,10.0,SSE,12.7,-,N/A,,Overcast,160,2013-01-27 23:55:00
7:14 PM,26.2,19.9,77,30.29,10.0,South,11.5,-,N/A,,Overcast,170,2013-01-28 00:14:00
7:34 PM,26.4,19.8,76,30.29,10.0,South,12.7,-,N/A,,Overcast,170,2013-01-28 00:34:00
7:54 PM,26.2,19.9,77,30.28,7.0,South,13.8,-,N/A,Snow,Light Snow,170,2013-01-28 00:54:00
8:14 PM,25.7,20.8,82,30.28,5.0,South,12.7,-,N/A,Snow,Light Snow,180,2013-01-28 01:14:00
8:35 PM,25.2,21.4,86,30.29,1.8,South,12.7,-,N/A,Snow,Light Snow,170,2013-01-28 01:35:00
8:54 PM,24.8,21.9,89,30.26,1.8,SSE,9.2,-,N/A,Snow,Light Snow,150,2013-01-28 01:54:00
9:14 PM,24.8,22.1,89,30.25,2.5,SSE,8.1,-,N/A,Snow,Light Snow,160,2013-01-28 02:14:00
9:35 PM,24.8,22.5,91,30.25,2.0,SSE,9.2,-,N/A,Snow,Light Snow,160,2013-01-28 02:35:00
9:54 PM,24.8,22.5,91,30.23,1.5,SSE,6.9,-,N/A,Snow,Light Snow,160,2013-01-28 02:54:00
10:15 PM,25.2,22.8,91,30.23,1.5,SSE,9.2,-,N/A,Snow,Light Snow,150,2013-01-28 03:15:00
10:34 PM,25.3,23.2,91,30.21,1.8,SE,9.2,-,N/A,Snow,Light Snow,140,2013-01-28 03:34:00
10:54 PM,25.7,23.5,92,30.20,1.2,SE,8.1,-,N/A,Snow,Light Snow,140,2013-01-28 03:54:00
11:14 PM,25.7,23.7,92,30.19,1.0,SE,9.2,-,N/A,Snow,Snow,140,2013-01-28 04:14:00
11:34 PM,26.1,23.9,92,30.17,1.0,SE,8.1,-,N/A,Snow,Snow,140,2013-01-28 04:34:00
11:54 PM,26.4,24.6,93,30.16,1.2,SE,9.2,16.1,N/A,Snow,Light Snow,140,2013-01-28 04:54:00